Strona główna
METAR-TAF:

METAR-TAF

Lotnisko :

Wagadugu, Burkina Faso

Port lotniczy Wagadugu

Szerokość geograficzna: 12-21N, Długość geograficzna: 001-31W, wysokość: 316 m

Aktualna obserwacja pogody

Raport powstał 52 minut temu, godzina 03:00 UTC
Wiatr 5 kt od północno-północny wschód
Temperatura 19°C
Wilgotność 28%
Ciśnienie 1013 hPa
Widzialność: 4500 m
pył

METAR: DFFD 180300Z 03005KT 4500 DU NSC 19/M00 Q1013 NOSIG

czas: 03:52 (03:52 UTC)

Prognoza

Raport powstał 4 godziny i 52 minut temu, godzina 23:00 UTC
Prognoza ważna od 18 godzina 00 UTC do 19 godzina 06 UTC
Wiatr 8 kt od wschodnio-północny wschód
Widzialność: 6000 m
Stopniowe zmiany
od 18 godzina 04 UTC do 18 godzina 06 UTC
Widzialność: 2500 m
pył
Przejściowo
od 18 godzina 07 UTC do 18 godzina 11 UTC
Widzialność: 1400 m
pył
Stopniowe zmiany
od 18 godzina 20 UTC do 18 godzina 22 UTC
Widzialność: 6000 m

TAF: DFFD 172300Z 1800/1906 07008KT 6000 NSC BECMG 1804/1806 2500 DU TEMPO 1807/1811 1400 DU BECMG 1820/1822 6000 NSW

Obserwacja i prognoza pogody dla ponad 4000 lotnisk (raport METAR i TAF).

Dostępne stacje oznaczono żółtymi i czerwonymi punktami na mapie.

Najedź kursorem aby zobaczyć nazwę stacji.

Kliknij aby zobaczyć obserwacje i prognozy pogody.

Aby zmienić mapę: kliknij na zielony przycisk z czarnym krzyżykiem, aby powiększyć; na zielony przycisk z myślnikiem, aby pomniejszyć; na zielone strzałki, aby przejść do map sąsiednich.


METAR-TAF: